createdAt,value
2023-04-23T00:02:19.561Z,99.90
2023-04-23T00:04:52.760Z,99.90
2023-04-23T00:07:21.901Z,99.90
2023-04-23T00:09:52.797Z,99.90
2023-04-23T00:12:20.984Z,99.90
2023-04-23T00:14:48.156Z,99.90
2023-04-23T00:17:15.186Z,99.90
2023-04-23T00:19:42.085Z,99.90
2023-04-23T00:22:08.962Z,99.90
2023-04-23T00:24:38.857Z,99.90
2023-04-23T00:27:06.559Z,99.90
2023-04-23T00:29:33.557Z,99.90
2023-04-23T00:32:00.810Z,99.90
2023-04-23T00:34:27.668Z,99.90
2023-04-23T00:36:55.117Z,99.90
2023-04-23T00:39:22.014Z,99.90
2023-04-23T00:41:49.012Z,99.90
2023-04-23T00:44:15.829Z,99.90
2023-04-23T00:46:42.877Z,99.90
2023-04-23T00:49:10.144Z,99.90
2023-04-23T00:51:36.893Z,99.90
2023-04-23T00:54:03.830Z,99.90
2023-04-23T00:56:30.690Z,99.90
2023-04-23T00:58:57.843Z,99.90
2023-04-23T01:01:26.116Z,99.90
2023-04-23T01:03:53.996Z,99.90
2023-04-23T01:06:21.486Z,99.90
2023-04-23T01:08:48.376Z,99.90
2023-04-23T01:11:17.105Z,99.90
2023-04-23T01:13:44.189Z,99.90
2023-04-23T01:16:11.788Z,99.90
2023-04-23T01:18:40.936Z,99.90
2023-04-23T01:21:11.723Z,99.90
2023-04-23T01:23:39.423Z,99.90
2023-04-23T01:26:07.223Z,99.90
2023-04-23T01:28:34.598Z,99.90
2023-04-23T01:31:02.522Z,99.90
2023-04-23T01:33:29.781Z,99.90
2023-04-23T01:35:57.609Z,99.90
2023-04-23T01:38:28.764Z,99.90
2023-04-23T01:40:55.584Z,99.90
2023-04-23T01:43:23.438Z,99.90
2023-04-23T01:45:50.338Z,99.90
2023-04-23T01:48:17.621Z,99.90
2023-04-23T01:50:44.386Z,99.90
2023-04-23T01:53:11.274Z,99.90
2023-04-23T01:55:45.976Z,99.90
2023-04-23T01:58:13.262Z,99.90
2023-04-23T02:00:40.057Z,99.90
2023-04-23T02:03:07.141Z,99.90
2023-04-23T02:05:36.056Z,99.90
2023-04-23T02:08:03.536Z,99.90
2023-04-23T02:10:31.732Z,99.90
2023-04-23T02:12:59.631Z,99.90
2023-04-23T02:15:26.470Z,99.90
2023-04-23T02:17:53.387Z,99.90
2023-04-23T02:20:21.808Z,99.90
2023-04-23T02:22:49.957Z,99.90
2023-04-23T02:25:18.891Z,99.90
2023-04-23T02:27:45.836Z,99.90
2023-04-23T02:30:12.839Z,99.90
2023-04-23T02:32:39.966Z,99.90
2023-04-23T02:35:09.424Z,99.90
2023-04-23T02:37:37.306Z,99.90
2023-04-23T02:40:08.083Z,99.90
2023-04-23T02:42:35.327Z,99.90
2023-04-23T02:45:02.173Z,99.90
2023-04-23T02:47:30.119Z,99.90
2023-04-23T02:49:57.642Z,99.90
2023-04-23T02:52:24.491Z,99.90
2023-04-23T02:54:51.349Z,99.90
2023-04-23T02:57:18.330Z,99.90
2023-04-23T02:59:45.121Z,99.90
2023-04-23T03:02:11.958Z,99.90
2023-04-23T03:04:39.932Z,99.90
2023-04-23T03:07:06.950Z,99.90
2023-04-23T03:09:33.789Z,99.90
2023-04-23T03:12:00.594Z,99.90
2023-04-23T03:14:27.394Z,99.90
2023-04-23T03:16:54.208Z,99.90
2023-04-23T03:19:21.027Z,99.90
2023-04-23T03:21:47.809Z,99.90
2023-04-23T03:24:16.127Z,99.90
2023-04-23T03:26:42.989Z,99.90
2023-04-23T03:29:10.721Z,99.90
2023-04-23T03:31:37.500Z,99.90
2023-04-23T03:34:04.279Z,99.90
2023-04-23T03:36:31.053Z,99.90
2023-04-23T03:38:57.947Z,99.90
2023-04-23T03:41:24.784Z,99.90
2023-04-23T03:43:51.581Z,99.90
2023-04-23T03:46:18.434Z,99.90
2023-04-23T03:48:45.300Z,99.90
2023-04-23T03:51:12.194Z,99.90
2023-04-23T03:53:39.007Z,99.90
2023-04-23T03:56:06.072Z,99.90
2023-04-23T03:58:32.830Z,99.90
2023-04-23T04:00:59.604Z,99.90
2023-04-23T04:03:26.965Z,99.90
2023-04-23T04:05:54.249Z,99.90
2023-04-23T04:08:22.450Z,99.90
2023-04-23T04:10:49.283Z,99.90
2023-04-23T04:13:16.123Z,99.90
2023-04-23T04:15:42.958Z,99.90
2023-04-23T04:18:09.842Z,99.90
2023-04-23T04:20:36.646Z,99.90
2023-04-23T04:23:03.478Z,99.90
2023-04-23T04:25:30.341Z,99.90
2023-04-23T04:27:57.502Z,99.90
2023-04-23T04:30:24.841Z,99.90
2023-04-23T04:32:51.722Z,99.90
2023-04-23T04:35:18.591Z,99.90
2023-04-23T04:37:45.360Z,99.90
2023-04-23T04:40:12.683Z,99.90
2023-04-23T04:42:39.485Z,99.90
2023-04-23T04:45:08.632Z,99.90
2023-04-23T04:47:36.185Z,99.90
2023-04-23T04:50:04.903Z,99.90
2023-04-23T04:52:32.154Z,99.90
2023-04-23T04:54:58.972Z,99.90
2023-04-23T04:57:25.787Z,99.90
2023-04-23T04:59:52.665Z,99.90
2023-04-23T05:02:21.463Z,99.90
2023-04-23T05:04:48.831Z,99.90
2023-04-23T05:07:15.622Z,99.90
2023-04-23T05:09:44.770Z,99.90
2023-04-23T05:12:12.116Z,99.90
2023-04-23T05:14:38.987Z,99.90
2023-04-23T05:17:05.824Z,99.90
2023-04-23T05:19:32.607Z,99.90
2023-04-23T05:21:59.437Z,99.90
2023-04-23T05:24:26.411Z,99.90
2023-04-23T05:26:53.211Z,99.90
2023-04-23T05:29:19.993Z,99.90
2023-04-23T05:31:46.857Z,99.90
2023-04-23T05:34:13.673Z,99.90
2023-04-23T05:36:40.623Z,99.90
2023-04-23T05:39:07.472Z,99.90
2023-04-23T05:41:34.414Z,99.90
2023-04-23T05:44:01.204Z,99.90
2023-04-23T05:46:28.138Z,99.90
2023-04-23T05:48:55.131Z,99.90
2023-04-23T05:51:22.073Z,99.90
2023-04-23T05:53:48.897Z,99.90
2023-04-23T05:56:16.508Z,99.90
2023-04-23T05:58:43.314Z,99.90
2023-04-23T06:01:10.350Z,99.90
2023-04-23T06:03:37.693Z,99.90
2023-04-23T06:06:05.016Z,99.90
2023-04-23T06:08:31.825Z,99.90
2023-04-23T06:10:58.964Z,99.90
2023-04-23T06:13:26.505Z,99.90
2023-04-23T06:15:53.422Z,99.90
2023-04-23T06:18:20.247Z,99.90
2023-04-23T06:20:48.393Z,99.90
2023-04-23T06:23:15.152Z,99.90
2023-04-23T06:25:41.976Z,99.90
2023-04-23T06:28:08.849Z,99.90
2023-04-23T06:30:35.616Z,99.90
2023-04-23T06:33:02.471Z,99.90
2023-04-23T06:35:31.484Z,99.90
2023-04-23T06:37:58.266Z,99.90
2023-04-23T06:40:25.075Z,99.90
2023-04-23T06:42:51.944Z,99.90
2023-04-23T06:45:19.601Z,99.90
2023-04-23T06:47:46.467Z,99.90
2023-04-23T06:50:13.318Z,99.90
2023-04-23T06:52:40.315Z,99.90
2023-04-23T06:55:08.455Z,99.90
2023-04-23T06:57:36.021Z,99.90
2023-04-23T07:00:02.972Z,99.90
2023-04-23T07:02:29.823Z,99.90
2023-04-23T07:04:56.678Z,99.90
2023-04-23T07:07:23.544Z,99.90
2023-04-23T07:09:50.335Z,99.90
2023-04-23T07:12:17.346Z,99.90
2023-04-23T07:14:44.241Z,99.90
2023-04-23T07:17:11.437Z,99.90
2023-04-23T07:19:38.869Z,99.90
2023-04-23T07:22:05.658Z,99.90
2023-04-23T07:24:32.464Z,99.90
2023-04-23T07:26:59.347Z,99.90
2023-04-23T07:29:26.158Z,99.90
2023-04-23T07:31:53.073Z,99.90
2023-04-23T07:34:19.905Z,99.90
2023-04-23T07:36:46.714Z,99.90
2023-04-23T07:39:13.516Z,99.90
2023-04-23T07:41:40.470Z,99.90
2023-04-23T07:44:07.511Z,99.90
2023-04-23T07:46:34.395Z,99.90
2023-04-23T07:49:01.337Z,99.90
2023-04-23T07:51:28.483Z,99.90
2023-04-23T07:53:56.468Z,99.90
2023-04-23T07:56:24.540Z,99.90
2023-04-23T07:58:54.203Z,99.90
2023-04-23T08:01:21.713Z,99.90
2023-04-23T08:03:48.839Z,99.90
2023-04-23T08:06:15.909Z,99.90
2023-04-23T08:08:42.757Z,99.90
2023-04-23T08:11:09.845Z,99.90
2023-04-23T08:13:36.681Z,99.90
2023-04-23T08:16:04.252Z,99.90
2023-04-23T08:18:31.069Z,99.90
2023-04-23T08:20:58.283Z,99.90
2023-04-23T08:23:25.439Z,99.90
2023-04-23T08:25:53.328Z,99.90
2023-04-23T08:28:20.436Z,99.90
2023-04-23T08:30:47.305Z,99.90
2023-04-23T08:33:14.603Z,99.90
2023-04-23T08:35:41.609Z,99.90
2023-04-23T08:38:08.409Z,99.90
2023-04-23T08:40:37.741Z,99.90
2023-04-23T08:43:17.144Z,99.90
2023-04-23T08:45:47.809Z,99.90
2023-04-23T08:48:15.432Z,99.90
2023-04-23T08:50:46.325Z,99.90
2023-04-23T08:53:19.807Z,99.90
2023-04-23T08:55:49.567Z,99.90
2023-04-23T08:58:17.141Z,99.90
2023-04-23T09:00:44.906Z,99.90
2023-04-23T09:03:12.199Z,99.90
2023-04-23T09:05:39.987Z,99.90
2023-04-23T09:08:08.678Z,99.90
2023-04-23T09:10:41.361Z,99.90
2023-04-23T09:13:08.581Z,99.90
2023-04-23T09:15:39.657Z,99.90
2023-04-23T09:18:07.713Z,99.90
2023-04-23T09:20:34.598Z,99.90
2023-04-23T09:23:01.670Z,99.90
2023-04-23T09:25:28.492Z,99.90
2023-04-23T09:27:58.989Z,99.90
2023-04-23T09:30:27.443Z,99.90
2023-04-23T09:32:54.963Z,99.90
2023-04-23T09:35:22.830Z,99.90
2023-04-23T09:37:52.878Z,99.90
2023-04-23T09:40:23.473Z,99.90
2023-04-23T09:42:55.081Z,99.90
2023-04-23T09:45:22.512Z,99.90
2023-04-23T09:47:56.270Z,99.90
2023-04-23T09:50:39.547Z,99.90
2023-04-23T09:53:08.972Z,99.90
2023-04-23T09:55:40.667Z,99.90
2023-04-23T09:58:16.485Z,99.90
2023-04-23T10:00:43.603Z,99.90
2023-04-23T10:03:11.960Z,99.90
2023-04-23T10:08:14.545Z,99.90
2023-04-23T10:10:55.091Z,99.90
2023-04-23T10:13:28.040Z,99.90
2023-04-23T10:15:59.082Z,99.90
2023-04-23T10:18:33.488Z,99.90
2023-04-23T10:21:03.251Z,99.90
2023-04-23T10:23:31.210Z,99.90
2023-04-23T10:25:59.552Z,99.90
2023-04-23T10:28:32.003Z,99.90
2023-04-23T10:31:00.168Z,99.90
2023-04-23T10:33:31.857Z,99.90
2023-04-23T10:36:02.970Z,99.90
2023-04-23T10:38:30.512Z,99.90
2023-04-23T10:41:00.858Z,99.90
2023-04-23T10:43:27.716Z,99.90
2023-04-23T10:45:54.527Z,99.90
2023-04-23T10:48:21.653Z,99.90
2023-04-23T10:51:17.560Z,99.90
2023-04-23T10:53:46.637Z,99.90
2023-04-23T10:56:15.955Z,99.90
2023-04-23T10:58:52.718Z,99.90
2023-04-23T11:01:20.709Z,99.90
2023-04-23T11:03:48.453Z,99.90
2023-04-23T11:06:48.337Z,99.90
2023-04-23T11:09:49.711Z,99.90
2023-04-23T11:12:29.918Z,99.90
2023-04-23T11:15:01.295Z,99.90
2023-04-23T11:17:31.341Z,99.90
2023-04-23T11:20:04.179Z,99.90
2023-04-23T11:22:39.540Z,99.90
2023-04-23T11:25:12.313Z,99.90
2023-04-23T11:27:42.120Z,99.90
2023-04-23T11:30:17.144Z,99.90
2023-04-23T11:32:50.684Z,99.90
2023-04-23T11:35:24.418Z,99.90
2023-04-23T11:37:51.658Z,99.90
2023-04-23T11:40:19.336Z,99.90
2023-04-23T11:42:54.971Z,99.90
2023-04-23T11:45:24.097Z,99.90
2023-04-23T11:47:56.236Z,99.90
2023-04-23T11:50:25.617Z,99.90
2023-04-23T11:52:52.918Z,99.90
2023-04-23T11:55:20.751Z,99.90
2023-04-23T11:57:50.065Z,99.90
2023-04-23T12:00:23.449Z,99.90
2023-04-23T12:02:56.170Z,99.90
2023-04-23T12:05:33.450Z,99.90
2023-04-23T12:08:18.076Z,99.90
2023-04-23T12:11:01.616Z,99.90
2023-04-23T12:13:33.938Z,99.90
2023-04-23T12:16:05.662Z,99.90
2023-04-23T12:18:42.185Z,99.90
2023-04-23T12:21:11.814Z,99.90
2023-04-23T12:23:41.456Z,99.90
2023-04-23T12:26:16.386Z,99.90
2023-04-23T12:28:51.268Z,99.90
2023-04-23T12:31:25.929Z,99.90
2023-04-23T12:34:09.981Z,99.90
2023-04-23T12:36:38.614Z,99.90
2023-04-23T12:39:32.315Z,99.90
2023-04-23T12:42:05.471Z,99.90
2023-04-23T12:44:35.742Z,99.90
2023-04-23T12:47:08.547Z,99.90
2023-04-23T12:49:38.185Z,99.90
2023-04-23T12:52:06.937Z,99.90
2023-04-23T12:54:39.760Z,99.90
2023-04-23T12:57:12.019Z,99.90
2023-04-23T12:59:38.923Z,99.90
2023-04-23T13:02:07.055Z,99.90
2023-04-23T13:04:36.151Z,99.90
2023-04-23T13:07:03.839Z,99.90
2023-04-23T13:09:30.944Z,99.90
2023-04-23T13:11:59.966Z,99.90
2023-04-23T13:14:27.875Z,99.90
2023-04-23T13:16:54.748Z,99.90
2023-04-23T13:19:21.583Z,99.90
2023-04-23T13:21:48.397Z,99.90
2023-04-23T13:24:15.395Z,99.90
2023-04-23T13:26:42.275Z,99.90
2023-04-23T13:29:09.191Z,99.90
2023-04-23T13:31:36.116Z,99.90
2023-04-23T13:34:03.280Z,99.90
2023-04-23T13:36:30.499Z,99.90
2023-04-23T13:38:57.471Z,99.90
2023-04-23T13:41:24.359Z,99.90
2023-04-23T13:43:51.201Z,99.90
2023-04-23T13:46:19.569Z,99.90
2023-04-23T13:48:46.633Z,99.90
2023-04-23T13:51:27.088Z,99.90
2023-04-23T13:54:00.028Z,99.90
2023-04-23T13:56:27.681Z,99.90
2023-04-23T13:59:02.245Z,99.90
2023-04-23T14:01:35.310Z,99.90
2023-04-23T14:04:04.309Z,99.90
2023-04-23T14:06:31.399Z,99.90
2023-04-23T14:08:58.333Z,99.90
2023-04-23T14:11:25.207Z,99.90
2023-04-23T14:13:52.053Z,99.90
2023-04-23T14:16:18.899Z,99.90
2023-04-23T14:18:45.822Z,99.90
2023-04-23T14:21:14.897Z,99.90
2023-04-23T14:23:56.012Z,99.90
2023-04-23T14:26:44.758Z,99.90
2023-04-23T14:29:50.972Z,99.90
2023-04-23T14:32:18.102Z,99.90
2023-04-23T14:34:45.204Z,99.90
2023-04-23T14:37:12.487Z,99.90
2023-04-23T14:39:41.114Z,99.90
2023-04-23T14:42:08.752Z,99.90
2023-04-23T14:44:35.715Z,99.90
2023-04-23T14:47:02.612Z,99.90
2023-04-23T14:49:29.455Z,99.90
2023-04-23T14:51:57.682Z,99.90
2023-04-23T14:54:24.806Z,99.90
2023-04-23T14:56:52.292Z,99.90
2023-04-23T14:59:19.141Z,99.90
2023-04-23T15:01:46.124Z,99.90
2023-04-23T15:04:13.280Z,99.90
2023-04-23T15:06:42.816Z,99.90
2023-04-23T15:09:09.620Z,99.90
2023-04-23T15:11:37.897Z,99.90
2023-04-23T15:14:26.741Z,99.90
2023-04-23T15:16:53.603Z,99.90
2023-04-23T15:19:20.452Z,99.90
2023-04-23T15:21:48.275Z,99.90
2023-04-23T15:24:16.584Z,99.90
2023-04-23T15:26:45.632Z,99.90
2023-04-23T15:29:13.665Z,99.90
2023-04-23T15:31:41.688Z,99.90
2023-04-23T15:34:09.467Z,99.90
2023-04-23T15:36:37.685Z,99.90
2023-04-23T15:39:06.298Z,99.90
2023-04-23T15:41:33.124Z,99.90
2023-04-23T15:44:00.339Z,99.90
2023-04-23T15:46:27.132Z,99.60
2023-04-23T15:48:54.006Z,99.60
2023-04-23T15:51:20.796Z,99.60
2023-04-23T15:53:47.614Z,99.90
2023-04-23T15:56:14.508Z,99.90
2023-04-23T15:58:41.418Z,99.90
2023-04-23T16:01:09.775Z,99.10
2023-04-23T16:03:36.912Z,99.40
2023-04-23T16:06:05.056Z,98.90
2023-04-23T16:08:32.633Z,97.60
2023-04-23T16:10:59.609Z,98.70
2023-04-23T16:13:28.353Z,97.40
2023-04-23T16:15:55.325Z,96.40
2023-04-23T16:18:22.140Z,97.50
2023-04-23T16:20:49.105Z,97.10
2023-04-23T16:23:16.217Z,96.10
2023-04-23T16:25:44.087Z,98.00
2023-04-23T16:28:13.160Z,97.00
2023-04-23T16:30:40.157Z,97.80
2023-04-23T16:33:07.142Z,99.00
2023-04-23T16:35:34.038Z,98.70
2023-04-23T16:38:00.990Z,97.80
2023-04-23T16:40:28.774Z,97.90
2023-04-23T16:42:55.617Z,98.30
2023-04-23T16:45:23.237Z,98.70
2023-04-23T16:47:50.883Z,99.60
2023-04-23T16:50:17.886Z,99.90
2023-04-23T16:52:44.776Z,99.30
2023-04-23T16:55:11.548Z,99.50
2023-04-23T16:57:38.427Z,99.70
2023-04-23T17:00:06.271Z,99.70
2023-04-23T17:02:34.417Z,99.80
2023-04-23T17:05:01.915Z,99.90
2023-04-23T17:07:29.134Z,99.90
2023-04-23T17:09:56.000Z,99.90
2023-04-23T17:12:22.952Z,99.90
2023-04-23T17:14:49.796Z,99.90
2023-04-23T17:17:16.689Z,99.90
2023-04-23T17:19:43.529Z,99.90
2023-04-23T17:22:10.679Z,99.90
2023-04-23T17:24:39.088Z,99.90
2023-04-23T17:27:06.315Z,99.90
2023-04-23T17:29:33.173Z,99.90
2023-04-23T17:32:01.405Z,99.90
2023-04-23T17:34:28.319Z,99.90
2023-04-23T17:36:55.885Z,99.90
2023-04-23T17:39:23.671Z,99.90
2023-04-23T17:41:50.538Z,99.90
2023-04-23T17:44:17.438Z,99.90
2023-04-23T17:46:44.231Z,99.90
2023-04-23T17:49:11.031Z,99.90
2023-04-23T17:51:37.920Z,99.90
2023-04-23T17:54:05.448Z,99.90
2023-04-23T17:56:32.550Z,99.90
2023-04-23T17:58:59.391Z,99.90
2023-04-23T18:01:26.836Z,99.90
2023-04-23T18:03:53.870Z,99.90
2023-04-23T18:06:21.899Z,99.90
2023-04-23T18:08:49.008Z,99.90
2023-04-23T18:11:15.833Z,99.90
2023-04-23T18:13:43.041Z,99.90
2023-04-23T18:16:09.862Z,99.90
2023-04-23T18:18:36.663Z,99.90
2023-04-23T18:21:05.040Z,99.90
2023-04-23T18:23:32.030Z,99.90
2023-04-23T18:26:01.478Z,99.90
2023-04-23T18:28:29.324Z,99.90
2023-04-23T18:31:02.187Z,99.90
2023-04-23T18:33:36.350Z,99.90
2023-04-23T18:36:18.871Z,99.90
2023-04-23T18:38:45.841Z,99.90
2023-04-23T18:41:12.696Z,99.90
2023-04-23T18:43:39.531Z,99.90
2023-04-23T18:46:06.373Z,99.90
2023-04-23T18:48:38.304Z,99.90
2023-04-23T18:51:33.308Z,99.90
2023-04-23T18:54:01.670Z,99.90
2023-04-23T18:56:28.648Z,99.90
2023-04-23T18:58:55.501Z,99.90
2023-04-23T19:01:24.006Z,99.90
2023-04-23T19:03:50.885Z,99.90
2023-04-23T19:06:17.755Z,99.90
2023-04-23T19:08:44.655Z,99.90
2023-04-23T19:11:11.560Z,99.90
2023-04-23T19:13:38.455Z,99.90
2023-04-23T19:16:05.434Z,99.90
2023-04-23T19:18:32.648Z,99.90
2023-04-23T19:20:59.801Z,99.90
2023-04-23T19:23:26.793Z,99.90
2023-04-23T19:25:53.912Z,99.90
2023-04-23T19:28:20.974Z,99.90
2023-04-23T19:30:47.843Z,99.90
2023-04-23T19:33:14.745Z,99.90
2023-04-23T19:35:41.603Z,99.90
2023-04-23T19:38:09.211Z,99.90
2023-04-23T19:40:36.043Z,99.90
2023-04-23T19:43:03.437Z,99.90
2023-04-23T19:45:30.265Z,99.90
2023-04-23T19:47:57.497Z,99.90
2023-04-23T19:50:25.551Z,99.90
2023-04-23T19:52:53.011Z,99.90
2023-04-23T19:55:22.164Z,99.90
2023-04-23T19:57:48.991Z,99.90
2023-04-23T20:00:16.780Z,99.90
2023-04-23T20:02:43.778Z,99.90
2023-04-23T20:05:11.220Z,99.90
2023-04-23T20:07:38.998Z,99.90
2023-04-23T20:10:07.509Z,99.90
2023-04-23T20:12:34.957Z,99.90
2023-04-23T20:15:02.209Z,99.90
2023-04-23T20:17:30.043Z,99.90
2023-04-23T20:20:01.885Z,99.90
2023-04-23T20:22:31.158Z,99.90
2023-04-23T20:24:58.882Z,99.90
2023-04-23T20:27:28.606Z,99.90
2023-04-23T20:29:55.739Z,99.90
2023-04-23T20:32:22.623Z,99.90
2023-04-23T20:34:49.426Z,99.90
2023-04-23T20:37:21.719Z,99.90
2023-04-23T20:39:49.828Z,99.90
2023-04-23T20:42:16.816Z,99.90
2023-04-23T20:44:45.522Z,99.90
2023-04-23T20:47:16.285Z,99.90
2023-04-23T20:49:43.544Z,99.90
2023-04-23T20:52:10.643Z,99.90
2023-04-23T20:54:37.452Z,99.90
2023-04-23T20:57:04.444Z,99.90
2023-04-23T20:59:31.316Z,99.90
2023-04-23T21:01:58.298Z,99.90
2023-04-23T21:04:25.381Z,99.90
2023-04-23T21:06:52.309Z,99.90
2023-04-23T21:09:19.156Z,99.90
2023-04-23T21:11:45.956Z,99.90
2023-04-23T21:14:12.810Z,99.90
2023-04-23T21:16:39.614Z,99.90
2023-04-23T21:19:06.546Z,99.90
2023-04-23T21:21:33.416Z,99.90
2023-04-23T21:24:01.020Z,99.90
2023-04-23T21:26:30.162Z,99.90
2023-04-23T21:28:57.408Z,99.90
2023-04-23T21:31:48.380Z,99.90
2023-04-23T21:34:15.740Z,99.90
2023-04-23T21:36:44.618Z,99.90
2023-04-23T21:39:13.171Z,99.90
2023-04-23T21:41:40.716Z,99.90
2023-04-23T21:44:08.568Z,99.90
2023-04-23T21:46:35.671Z,99.90
2023-04-23T21:49:24.368Z,99.90
2023-04-23T21:51:54.510Z,99.90
2023-04-23T21:54:21.835Z,99.90
2023-04-23T21:56:48.737Z,99.90
2023-04-23T21:59:15.905Z,99.90
2023-04-23T22:01:42.826Z,99.90
2023-04-23T22:04:10.223Z,99.90
2023-04-23T22:06:45.049Z,99.90
2023-04-23T22:09:13.157Z,99.90
2023-04-23T22:11:44.225Z,99.90
2023-04-23T22:14:16.530Z,99.90
2023-04-23T22:19:25.979Z,99.90
2023-04-23T22:21:52.767Z,99.90
2023-04-23T22:24:19.615Z,99.90
2023-04-23T22:26:47.443Z,99.90
2023-04-23T22:29:15.399Z,99.90
2023-04-23T22:31:42.492Z,99.90
2023-04-23T22:34:09.401Z,99.90
2023-04-23T22:36:36.284Z,99.90
2023-04-23T22:39:04.623Z,99.90
2023-04-23T22:41:33.802Z,99.90
2023-04-23T22:44:00.937Z,99.90
2023-04-23T22:46:28.002Z,99.90
2023-04-23T22:48:55.266Z,99.90
2023-04-23T22:51:22.133Z,99.90
2023-04-23T22:53:49.148Z,99.90
2023-04-23T22:56:16.082Z,99.90
2023-04-23T22:58:42.957Z,99.90
2023-04-23T23:01:09.854Z,99.90
2023-04-23T23:03:36.869Z,99.90
2023-04-23T23:06:03.973Z,99.90
2023-04-23T23:08:30.852Z,99.90
2023-04-23T23:10:57.711Z,99.90
2023-04-23T23:13:24.590Z,99.90
2023-04-23T23:15:51.426Z,99.90
2023-04-23T23:18:18.390Z,99.90
2023-04-23T23:20:45.341Z,99.90
2023-04-23T23:23:12.420Z,99.90
2023-04-23T23:25:39.481Z,99.90
2023-04-23T23:28:06.290Z,99.90
2023-04-23T23:30:33.212Z,99.90
2023-04-23T23:33:00.583Z,99.90
2023-04-23T23:35:27.417Z,99.90
2023-04-23T23:37:54.341Z,99.90
2023-04-23T23:40:21.149Z,99.90
2023-04-23T23:42:47.942Z,99.90
2023-04-23T23:45:14.765Z,99.90
2023-04-23T23:47:41.620Z,99.90
2023-04-23T23:50:09.341Z,99.90
2023-04-23T23:52:36.368Z,99.90
2023-04-23T23:55:03.448Z,99.90
2023-04-23T23:57:30.345Z,99.90
2023-04-23T23:59:57.183Z,99.90
